Terminal Aerodrome Forecast
Issued by NWS Tampa Bay Area, FL

Home | Current Version | Previous Version | Text Only | Print | Product List | Glossary On
Versions: 1 2 3 4 5 6 7 8 9 10 11 12 13 14 15 16
708
FTUS42 KTBW 262029 AAB
TAFSRQ
TAF AMD
KSRQ 262029Z 2620/2718 07010KT P6SM VCTS SCT035CB BKN060
      TEMPO 2620/2622 08015G25KT 2SM +TSRA BKN030CB
     FM270000 08006KT P6SM SCT050 SCT250
     FM271500 08008KT P6SM SCT030 BKN150=

USA.gov is the U.S. government's official web portal to all federal, state and local government web resources and services.